sensor_id;sensor_type;location;lat;lon;timestamp;P1;durP1;ratioP1;P2;durP2;ratioP2
53533;SDS011;39421;53.204;6.568;2022-07-23T00:02:22;7.43;;;2.75;;
53533;SDS011;39421;53.204;6.568;2022-07-23T00:04:48;6.70;;;2.28;;
53533;SDS011;39421;53.204;6.568;2022-07-23T00:07:13;3.80;;;2.30;;
53533;SDS011;39421;53.204;6.568;2022-07-23T00:09:39;4.32;;;2.60;;
53533;SDS011;39421;53.204;6.568;2022-07-23T00:12:05;3.53;;;2.38;;
53533;SDS011;39421;53.204;6.568;2022-07-23T00:14:31;4.47;;;2.80;;
53533;SDS011;39421;53.204;6.568;2022-07-23T00:16:58;5.93;;;2.77;;
53533;SDS011;39421;53.204;6.568;2022-07-23T00:19:24;4.90;;;2.60;;
53533;SDS011;39421;53.204;6.568;2022-07-23T00:21:56;4.95;;;2.88;;
53533;SDS011;39421;53.204;6.568;2022-07-23T00:24:21;5.60;;;2.88;;
53533;SDS011;39421;53.204;6.568;2022-07-23T00:26:51;4.25;;;2.60;;
53533;SDS011;39421;53.204;6.568;2022-07-23T00:29:22;5.68;;;2.80;;
53533;SDS011;39421;53.204;6.568;2022-07-23T00:31:47;5.10;;;3.20;;
53533;SDS011;39421;53.204;6.568;2022-07-23T00:34:13;5.30;;;2.73;;
53533;SDS011;39421;53.204;6.568;2022-07-23T00:36:39;5.10;;;3.00;;
53533;SDS011;39421;53.204;6.568;2022-07-23T00:39:06;4.35;;;2.80;;
53533;SDS011;39421;53.204;6.568;2022-07-23T00:41:40;5.50;;;3.05;;
53533;SDS011;39421;53.204;6.568;2022-07-23T00:44:19;4.25;;;3.03;;
53533;SDS011;39421;53.204;6.568;2022-07-23T00:46:47;3.85;;;3.17;;
53533;SDS011;39421;53.204;6.568;2022-07-23T00:49:15;7.40;;;3.22;;
53533;SDS011;39421;53.204;6.568;2022-07-23T00:51:43;4.80;;;2.90;;
53533;SDS011;39421;53.204;6.568;2022-07-23T00:54:15;4.75;;;2.85;;
53533;SDS011;39421;53.204;6.568;2022-07-23T00:56:44;5.15;;;3.10;;
53533;SDS011;39421;53.204;6.568;2022-07-23T00:59:10;4.53;;;2.90;;
53533;SDS011;39421;53.204;6.568;2022-07-23T01:01:37;4.15;;;3.20;;
53533;SDS011;39421;53.204;6.568;2022-07-23T01:04:06;4.80;;;3.47;;
53533;SDS011;39421;53.204;6.568;2022-07-23T01:06:36;5.00;;;3.35;;
53533;SDS011;39421;53.204;6.568;2022-07-23T01:09:04;6.03;;;3.30;;
53533;SDS011;39421;53.204;6.568;2022-07-23T01:11:34;6.57;;;3.22;;
53533;SDS011;39421;53.204;6.568;2022-07-23T01:14:23;5.60;;;3.10;;
53533;SDS011;39421;53.204;6.568;2022-07-23T01:16:49;6.10;;;3.63;;
53533;SDS011;39421;53.204;6.568;2022-07-23T01:19:20;4.88;;;3.03;;
53533;SDS011;39421;53.204;6.568;2022-07-23T01:21:48;4.73;;;3.13;;
53533;SDS011;39421;53.204;6.568;2022-07-23T01:24:15;4.90;;;2.88;;
53533;SDS011;39421;53.204;6.568;2022-07-23T01:26:46;5.57;;;3.08;;
53533;SDS011;39421;53.204;6.568;2022-07-23T01:29:15;4.55;;;3.20;;
53533;SDS011;39421;53.204;6.568;2022-07-23T01:31:43;5.97;;;3.15;;
53533;SDS011;39421;53.204;6.568;2022-07-23T01:34:09;5.57;;;3.40;;
53533;SDS011;39421;53.204;6.568;2022-07-23T01:36:41;5.35;;;3.35;;
53533;SDS011;39421;53.204;6.568;2022-07-23T01:39:08;5.68;;;3.55;;
53533;SDS011;39421;53.204;6.568;2022-07-23T01:41:34;5.53;;;3.53;;
53533;SDS011;39421;53.204;6.568;2022-07-23T01:44:01;5.18;;;3.60;;
53533;SDS011;39421;53.204;6.568;2022-07-23T01:46:27;4.95;;;3.45;;
53533;SDS011;39421;53.204;6.568;2022-07-23T01:48:53;5.63;;;3.47;;
53533;SDS011;39421;53.204;6.568;2022-07-23T01:51:19;4.85;;;3.33;;
53533;SDS011;39421;53.204;6.568;2022-07-23T01:53:50;5.22;;;3.30;;
53533;SDS011;39421;53.204;6.568;2022-07-23T01:56:15;4.37;;;3.10;;
53533;SDS011;39421;53.204;6.568;2022-07-23T01:58:41;6.38;;;3.63;;
53533;SDS011;39421;53.204;6.568;2022-07-23T02:01:07;6.05;;;3.70;;
53533;SDS011;39421;53.204;6.568;2022-07-23T02:03:34;6.40;;;3.60;;
53533;SDS011;39421;53.204;6.568;2022-07-23T02:06:00;5.93;;;3.70;;
53533;SDS011;39421;53.204;6.568;2022-07-23T02:08:26;4.40;;;3.40;;
53533;SDS011;39421;53.204;6.568;2022-07-23T02:10:51;6.40;;;3.67;;
53533;SDS011;39421;53.204;6.568;2022-07-23T02:13:18;5.25;;;3.75;;
53533;SDS011;39421;53.204;6.568;2022-07-23T02:15:46;6.18;;;3.88;;
53533;SDS011;39421;53.204;6.568;2022-07-23T02:18:12;5.15;;;3.50;;
53533;SDS011;39421;53.204;6.568;2022-07-23T02:20:39;6.43;;;3.67;;
53533;SDS011;39421;53.204;6.568;2022-07-23T02:23:12;5.25;;;3.60;;
53533;SDS011;39421;53.204;6.568;2022-07-23T02:25:39;5.60;;;3.50;;
53533;SDS011;39421;53.204;6.568;2022-07-23T02:28:05;5.18;;;3.58;;
53533;SDS011;39421;53.204;6.568;2022-07-23T02:30:31;4.93;;;3.50;;
53533;SDS011;39421;53.204;6.568;2022-07-23T02:33:05;5.40;;;3.50;;
53533;SDS011;39421;53.204;6.568;2022-07-23T02:35:31;5.97;;;3.75;;
53533;SDS011;39421;53.204;6.568;2022-07-23T02:38:06;6.07;;;3.80;;
53533;SDS011;39421;53.204;6.568;2022-07-23T02:40:31;5.57;;;3.87;;
53533;SDS011;39421;53.204;6.568;2022-07-23T02:42:58;6.50;;;4.07;;
53533;SDS011;39421;53.204;6.568;2022-07-23T02:45:24;5.10;;;4.03;;
53533;SDS011;39421;53.204;6.568;2022-07-23T02:47:50;5.97;;;4.00;;
53533;SDS011;39421;53.204;6.568;2022-07-23T02:50:16;5.77;;;4.00;;
53533;SDS011;39421;53.204;6.568;2022-07-23T02:52:41;6.50;;;4.10;;
53533;SDS011;39421;53.204;6.568;2022-07-23T02:55:07;5.70;;;3.78;;
53533;SDS011;39421;53.204;6.568;2022-07-23T02:57:33;6.80;;;3.65;;
53533;SDS011;39421;53.204;6.568;2022-07-23T02:59:58;4.97;;;3.70;;
53533;SDS011;39421;53.204;6.568;2022-07-23T03:02:33;6.30;;;3.70;;
53533;SDS011;39421;53.204;6.568;2022-07-23T03:04:59;6.07;;;3.80;;
53533;SDS011;39421;53.204;6.568;2022-07-23T03:07:28;6.32;;;3.60;;
53533;SDS011;39421;53.204;6.568;2022-07-23T03:10:01;5.30;;;3.70;;
53533;SDS011;39421;53.204;6.568;2022-07-23T03:12:27;4.90;;;3.38;;
53533;SDS011;39421;53.204;6.568;2022-07-23T03:14:53;5.43;;;3.60;;
53533;SDS011;39421;53.204;6.568;2022-07-23T03:17:19;5.55;;;3.67;;
53533;SDS011;39421;53.204;6.568;2022-07-23T03:19:48;6.35;;;3.65;;
53533;SDS011;39421;53.204;6.568;2022-07-23T03:22:13;5.03;;;3.60;;
53533;SDS011;39421;53.204;6.568;2022-07-23T03:24:39;4.73;;;3.70;;
53533;SDS011;39421;53.204;6.568;2022-07-23T03:27:21;4.35;;;3.50;;
53533;SDS011;39421;53.204;6.568;2022-07-23T03:29:50;6.90;;;3.67;;
53533;SDS011;39421;53.204;6.568;2022-07-23T03:32:23;5.60;;;3.60;;
53533;SDS011;39421;53.204;6.568;2022-07-23T03:34:49;4.90;;;3.30;;
53533;SDS011;39421;53.204;6.568;2022-07-23T03:37:16;5.07;;;3.30;;
53533;SDS011;39421;53.204;6.568;2022-07-23T03:39:42;4.90;;;3.20;;
53533;SDS011;39421;53.204;6.568;2022-07-23T03:42:08;4.37;;;3.30;;
53533;SDS011;39421;53.204;6.568;2022-07-23T03:44:35;4.18;;;3.30;;
53533;SDS011;39421;53.204;6.568;2022-07-23T03:47:04;5.00;;;3.38;;
53533;SDS011;39421;53.204;6.568;2022-07-23T03:49:31;5.00;;;3.60;;
53533;SDS011;39421;53.204;6.568;2022-07-23T03:51:59;4.80;;;3.60;;
53533;SDS011;39421;53.204;6.568;2022-07-23T03:54:25;6.33;;;3.67;;
53533;SDS011;39421;53.204;6.568;2022-07-23T03:56:56;6.03;;;3.78;;
53533;SDS011;39421;53.204;6.568;2022-07-23T03:59:24;5.72;;;3.40;;
53533;SDS011;39421;53.204;6.568;2022-07-23T04:01:50;6.53;;;3.38;;
53533;SDS011;39421;53.204;6.568;2022-07-23T04:04:16;6.23;;;3.20;;
53533;SDS011;39421;53.204;6.568;2022-07-23T04:06:51;5.18;;;3.35;;
53533;SDS011;39421;53.204;6.568;2022-07-23T04:09:17;6.53;;;3.55;;
53533;SDS011;39421;53.204;6.568;2022-07-23T04:11:42;5.20;;;3.33;;
53533;SDS011;39421;53.204;6.568;2022-07-23T04:14:09;5.00;;;3.50;;
53533;SDS011;39421;53.204;6.568;2022-07-23T04:16:34;4.33;;;3.10;;
53533;SDS011;39421;53.204;6.568;2022-07-23T04:19:00;6.73;;;3.63;;
53533;SDS011;39421;53.204;6.568;2022-07-23T04:21:29;3.78;;;3.13;;
53533;SDS011;39421;53.204;6.568;2022-07-23T04:23:55;3.42;;;2.85;;
53533;SDS011;39421;53.204;6.568;2022-07-23T04:26:21;4.13;;;2.87;;
53533;SDS011;39421;53.204;6.568;2022-07-23T04:28:47;5.78;;;2.95;;
53533;SDS011;39421;53.204;6.568;2022-07-23T04:31:15;4.43;;;3.03;;
53533;SDS011;39421;53.204;6.568;2022-07-23T04:33:40;4.35;;;2.95;;
53533;SDS011;39421;53.204;6.568;2022-07-23T04:36:06;4.60;;;2.70;;
53533;SDS011;39421;53.204;6.568;2022-07-23T04:38:38;4.28;;;2.95;;
53533;SDS011;39421;53.204;6.568;2022-07-23T04:41:04;4.55;;;2.97;;
53533;SDS011;39421;53.204;6.568;2022-07-23T04:43:30;5.95;;;3.10;;
53533;SDS011;39421;53.204;6.568;2022-07-23T04:45:56;5.30;;;3.08;;
53533;SDS011;39421;53.204;6.568;2022-07-23T04:48:25;6.43;;;3.20;;
53533;SDS011;39421;53.204;6.568;2022-07-23T04:50:50;5.18;;;3.20;;
53533;SDS011;39421;53.204;6.568;2022-07-23T04:53:16;4.18;;;2.70;;
53533;SDS011;39421;53.204;6.568;2022-07-23T04:55:45;6.60;;;3.17;;
53533;SDS011;39421;53.204;6.568;2022-07-23T04:58:11;4.23;;;2.90;;
53533;SDS011;39421;53.204;6.568;2022-07-23T05:00:37;4.60;;;2.90;;
53533;SDS011;39421;53.204;6.568;2022-07-23T05:03:04;3.78;;;2.80;;
53533;SDS011;39421;53.204;6.568;2022-07-23T05:05:29;5.67;;;2.87;;
53533;SDS011;39421;53.204;6.568;2022-07-23T05:07:55;4.57;;;2.67;;
53533;SDS011;39421;53.204;6.568;2022-07-23T05:10:21;6.30;;;2.90;;
53533;SDS011;39421;53.204;6.568;2022-07-23T05:12:57;4.40;;;2.90;;
53533;SDS011;39421;53.204;6.568;2022-07-23T05:15:24;3.67;;;2.70;;
53533;SDS011;39421;53.204;6.568;2022-07-23T05:17:50;3.17;;;2.25;;
53533;SDS011;39421;53.204;6.568;2022-07-23T05:20:16;4.03;;;2.60;;
53533;SDS011;39421;53.204;6.568;2022-07-23T05:22:46;5.30;;;2.67;;
53533;SDS011;39421;53.204;6.568;2022-07-23T05:25:12;3.50;;;2.30;;
53533;SDS011;39421;53.204;6.568;2022-07-23T05:27:44;4.13;;;2.30;;
53533;SDS011;39421;53.204;6.568;2022-07-23T05:30:11;4.05;;;2.38;;
53533;SDS011;39421;53.204;6.568;2022-07-23T05:32:43;4.17;;;2.10;;
53533;SDS011;39421;53.204;6.568;2022-07-23T05:35:09;3.87;;;2.23;;
53533;SDS011;39421;53.204;6.568;2022-07-23T05:37:36;4.15;;;2.33;;
53533;SDS011;39421;53.204;6.568;2022-07-23T05:40:03;4.07;;;2.35;;
53533;SDS011;39421;53.204;6.568;2022-07-23T05:42:37;3.70;;;2.40;;
53533;SDS011;39421;53.204;6.568;2022-07-23T05:45:04;3.75;;;2.42;;
53533;SDS011;39421;53.204;6.568;2022-07-23T05:47:42;5.03;;;2.60;;
53533;SDS011;39421;53.204;6.568;2022-07-23T05:50:10;3.63;;;2.50;;
53533;SDS011;39421;53.204;6.568;2022-07-23T05:52:36;3.40;;;2.57;;
53533;SDS011;39421;53.204;6.568;2022-07-23T05:55:12;4.63;;;2.30;;
53533;SDS011;39421;53.204;6.568;2022-07-23T05:57:39;3.75;;;2.40;;
53533;SDS011;39421;53.204;6.568;2022-07-23T06:00:09;4.80;;;2.22;;
53533;SDS011;39421;53.204;6.568;2022-07-23T06:02:36;3.58;;;2.20;;
53533;SDS011;39421;53.204;6.568;2022-07-23T06:05:03;3.30;;;2.20;;
53533;SDS011;39421;53.204;6.568;2022-07-23T06:07:29;3.83;;;2.30;;
53533;SDS011;39421;53.204;6.568;2022-07-23T06:09:54;3.90;;;2.20;;
53533;SDS011;39421;53.204;6.568;2022-07-23T06:12:20;4.70;;;2.57;;
53533;SDS011;39421;53.204;6.568;2022-07-23T06:14:46;6.67;;;2.40;;
53533;SDS011;39421;53.204;6.568;2022-07-23T06:17:19;3.55;;;2.00;;
53533;SDS011;39421;53.204;6.568;2022-07-23T06:19:46;5.25;;;2.13;;
53533;SDS011;39421;53.204;6.568;2022-07-23T06:22:13;3.20;;;1.77;;
53533;SDS011;39421;53.204;6.568;2022-07-23T06:24:41;3.92;;;2.15;;
53533;SDS011;39421;53.204;6.568;2022-07-23T06:27:08;2.42;;;1.90;;
53533;SDS011;39421;53.204;6.568;2022-07-23T06:29:33;3.10;;;1.85;;
53533;SDS011;39421;53.204;6.568;2022-07-23T06:32:05;4.88;;;1.90;;
53533;SDS011;39421;53.204;6.568;2022-07-23T06:34:30;2.87;;;2.17;;
53533;SDS011;39421;53.204;6.568;2022-07-23T06:36:58;3.85;;;2.00;;
53533;SDS011;39421;53.204;6.568;2022-07-23T06:39:25;3.20;;;2.10;;
53533;SDS011;39421;53.204;6.568;2022-07-23T06:41:53;4.03;;;2.20;;
53533;SDS011;39421;53.204;6.568;2022-07-23T06:44:25;3.28;;;1.77;;
53533;SDS011;39421;53.204;6.568;2022-07-23T06:46:50;3.83;;;2.00;;
53533;SDS011;39421;53.204;6.568;2022-07-23T06:49:16;5.35;;;1.90;;
53533;SDS011;39421;53.204;6.568;2022-07-23T06:51:42;2.47;;;1.98;;
53533;SDS011;39421;53.204;6.568;2022-07-23T06:54:12;2.90;;;1.90;;
53533;SDS011;39421;53.204;6.568;2022-07-23T06:56:38;3.10;;;1.90;;
53533;SDS011;39421;53.204;6.568;2022-07-23T06:59:05;2.50;;;2.00;;
53533;SDS011;39421;53.204;6.568;2022-07-23T07:01:35;2.45;;;2.10;;
53533;SDS011;39421;53.204;6.568;2022-07-23T07:04:01;3.97;;;1.92;;
53533;SDS011;39421;53.204;6.568;2022-07-23T07:06:28;4.10;;;2.00;;
53533;SDS011;39421;53.204;6.568;2022-07-23T07:08:54;3.30;;;2.10;;
53533;SDS011;39421;53.204;6.568;2022-07-23T07:11:20;4.32;;;1.70;;
53533;SDS011;39421;53.204;6.568;2022-07-23T07:13:46;3.50;;;1.70;;
53533;SDS011;39421;53.204;6.568;2022-07-23T07:16:13;2.23;;;1.13;;
53533;SDS011;39421;53.204;6.568;2022-07-23T07:18:40;1.60;;;1.20;;
53533;SDS011;39421;53.204;6.568;2022-07-23T07:21:06;1.92;;;1.20;;
53533;SDS011;39421;53.204;6.568;2022-07-23T07:23:31;1.40;;;0.80;;
53533;SDS011;39421;53.204;6.568;2022-07-23T07:26:06;1.60;;;0.95;;
53533;SDS011;39421;53.204;6.568;2022-07-23T07:28:38;2.00;;;0.90;;
53533;SDS011;39421;53.204;6.568;2022-07-23T07:31:10;1.08;;;0.70;;
53533;SDS011;39421;53.204;6.568;2022-07-23T07:33:39;1.02;;;0.60;;
53533;SDS011;39421;53.204;6.568;2022-07-23T07:36:13;1.47;;;0.73;;
53533;SDS011;39421;53.204;6.568;2022-07-23T07:38:41;3.35;;;0.90;;
53533;SDS011;39421;53.204;6.568;2022-07-23T07:41:07;1.90;;;0.77;;
53533;SDS011;39421;53.204;6.568;2022-07-23T07:43:36;0.70;;;0.60;;
53533;SDS011;39421;53.204;6.568;2022-07-23T07:46:05;1.35;;;0.70;;
53533;SDS011;39421;53.204;6.568;2022-07-23T07:48:35;1.73;;;0.73;;
53533;SDS011;39421;53.204;6.568;2022-07-23T07:51:02;1.80;;;0.85;;
53533;SDS011;39421;53.204;6.568;2022-07-23T07:53:30;7.75;;;1.35;;
53533;SDS011;39421;53.204;6.568;2022-07-23T07:55:55;1.38;;;0.70;;
53533;SDS011;39421;53.204;6.568;2022-07-23T07:58:22;1.00;;;0.77;;
53533;SDS011;39421;53.204;6.568;2022-07-23T08:00:48;2.38;;;0.75;;
53533;SDS011;39421;53.204;6.568;2022-07-23T08:03:14;1.20;;;0.53;;
53533;SDS011;39421;53.204;6.568;2022-07-23T08:05:39;0.60;;;0.60;;
53533;SDS011;39421;53.204;6.568;2022-07-23T08:08:05;1.50;;;0.80;;
53533;SDS011;39421;53.204;6.568;2022-07-23T08:10:34;1.80;;;0.80;;
53533;SDS011;39421;53.204;6.568;2022-07-23T08:13:07;1.77;;;0.90;;
53533;SDS011;39421;53.204;6.568;2022-07-23T08:15:45;1.15;;;0.70;;
53533;SDS011;39421;53.204;6.568;2022-07-23T08:18:10;1.00;;;0.65;;
53533;SDS011;39421;53.204;6.568;2022-07-23T08:20:36;1.35;;;0.75;;
53533;SDS011;39421;53.204;6.568;2022-07-23T08:23:11;1.70;;;0.70;;
53533;SDS011;39421;53.204;6.568;2022-07-23T08:25:38;1.20;;;0.80;;
53533;SDS011;39421;53.204;6.568;2022-07-23T08:28:10;1.90;;;0.70;;
53533;SDS011;39421;53.204;6.568;2022-07-23T08:30:41;1.17;;;0.73;;
53533;SDS011;39421;53.204;6.568;2022-07-23T08:33:10;1.20;;;0.70;;
53533;SDS011;39421;53.204;6.568;2022-07-23T08:35:43;0.88;;;0.65;;
53533;SDS011;39421;53.204;6.568;2022-07-23T08:38:13;1.10;;;0.65;;
53533;SDS011;39421;53.204;6.568;2022-07-23T08:40:41;2.00;;;0.80;;
53533;SDS011;39421;53.204;6.568;2022-07-23T08:43:13;2.38;;;0.98;;
53533;SDS011;39421;53.204;6.568;2022-07-23T08:45:49;2.70;;;0.80;;
53533;SDS011;39421;53.204;6.568;2022-07-23T08:48:21;1.90;;;1.00;;
53533;SDS011;39421;53.204;6.568;2022-07-23T08:50:50;1.93;;;0.80;;
53533;SDS011;39421;53.204;6.568;2022-07-23T08:53:17;1.20;;;0.70;;
53533;SDS011;39421;53.204;6.568;2022-07-23T08:55:44;1.23;;;0.70;;
53533;SDS011;39421;53.204;6.568;2022-07-23T08:58:11;1.23;;;0.85;;
53533;SDS011;39421;53.204;6.568;2022-07-23T09:00:39;1.30;;;0.80;;
53533;SDS011;39421;53.204;6.568;2022-07-23T09:03:12;0.85;;;0.80;;
53533;SDS011;39421;53.204;6.568;2022-07-23T09:05:51;1.00;;;0.80;;
53533;SDS011;39421;53.204;6.568;2022-07-23T09:08:22;3.03;;;0.90;;
53533;SDS011;39421;53.204;6.568;2022-07-23T09:10:59;1.83;;;0.80;;
53533;SDS011;39421;53.204;6.568;2022-07-23T09:16:00;1.73;;;0.80;;
53533;SDS011;39421;53.204;6.568;2022-07-23T09:18:34;3.08;;;0.90;;
53533;SDS011;39421;53.204;6.568;2022-07-23T09:21:57;1.40;;;0.80;;
53533;SDS011;39421;53.204;6.568;2022-07-23T09:24:08;3.13;;;1.30;;
53533;SDS011;39421;53.204;6.568;2022-07-23T09:26:37;1.52;;;0.85;;
53533;SDS011;39421;53.204;6.568;2022-07-23T09:29:24;1.60;;;0.85;;
53533;SDS011;39421;53.204;6.568;2022-07-23T09:31:58;2.10;;;0.93;;
53533;SDS011;39421;53.204;6.568;2022-07-23T09:37:11;2.50;;;1.00;;
53533;SDS011;39421;53.204;6.568;2022-07-23T09:39:43;3.08;;;1.00;;
53533;SDS011;39421;53.204;6.568;2022-07-23T09:42:16;1.80;;;0.95;;
53533;SDS011;39421;53.204;6.568;2022-07-23T09:44:43;3.60;;;1.20;;
53533;SDS011;39421;53.204;6.568;2022-07-23T09:47:11;2.70;;;0.90;;
53533;SDS011;39421;53.204;6.568;2022-07-23T09:49:36;2.05;;;1.00;;
53533;SDS011;39421;53.204;6.568;2022-07-23T09:52:09;1.00;;;0.90;;
53533;SDS011;39421;53.204;6.568;2022-07-23T09:54:38;1.35;;;0.70;;
53533;SDS011;39421;53.204;6.568;2022-07-23T09:59:47;1.73;;;0.80;;
53533;SDS011;39421;53.204;6.568;2022-07-23T10:02:15;1.15;;;0.90;;
53533;SDS011;39421;53.204;6.568;2022-07-23T10:04:41;2.73;;;0.83;;
53533;SDS011;39421;53.204;6.568;2022-07-23T10:07:09;1.60;;;0.70;;
53533;SDS011;39421;53.204;6.568;2022-07-23T10:09:37;2.33;;;1.00;;
53533;SDS011;39421;53.204;6.568;2022-07-23T10:12:11;3.13;;;1.00;;
53533;SDS011;39421;53.204;6.568;2022-07-23T10:14:56;2.03;;;1.10;;
53533;SDS011;39421;53.204;6.568;2022-07-23T10:17:22;5.75;;;1.30;;
53533;SDS011;39421;53.204;6.568;2022-07-23T10:19:48;1.50;;;0.90;;
53533;SDS011;39421;53.204;6.568;2022-07-23T10:22:22;1.70;;;1.10;;
53533;SDS011;39421;53.204;6.568;2022-07-23T10:30:45;3.20;;;1.30;;
53533;SDS011;39421;53.204;6.568;2022-07-23T10:36:44;2.80;;;1.10;;
53533;SDS011;39421;53.204;6.568;2022-07-23T10:39:19;7.97;;;1.70;;
53533;SDS011;39421;53.204;6.568;2022-07-23T10:42:12;1.93;;;1.10;;
53533;SDS011;39421;53.204;6.568;2022-07-23T10:44:43;2.08;;;1.00;;
53533;SDS011;39421;53.204;6.568;2022-07-23T10:47:26;2.67;;;1.10;;
53533;SDS011;39421;53.204;6.568;2022-07-23T10:50:18;1.65;;;1.10;;
53533;SDS011;39421;53.204;6.568;2022-07-23T10:55:45;2.30;;;1.10;;
53533;SDS011;39421;53.204;6.568;2022-07-23T10:58:19;5.27;;;1.67;;
53533;SDS011;39421;53.204;6.568;2022-07-23T11:04:01;3.17;;;1.17;;
53533;SDS011;39421;53.204;6.568;2022-07-23T11:09:29;2.97;;;1.20;;
53533;SDS011;39421;53.204;6.568;2022-07-23T11:15:02;2.22;;;1.00;;
53533;SDS011;39421;53.204;6.568;2022-07-23T11:17:33;2.40;;;1.30;;
53533;SDS011;39421;53.204;6.568;2022-07-23T11:20:44;2.25;;;1.20;;
53533;SDS011;39421;53.204;6.568;2022-07-23T11:25:36;4.65;;;1.23;;
53533;SDS011;39421;53.204;6.568;2022-07-23T11:28:10;2.60;;;1.20;;
53533;SDS011;39421;53.204;6.568;2022-07-23T11:30:44;2.05;;;1.20;;
53533;SDS011;39421;53.204;6.568;2022-07-23T11:35:37;3.23;;;1.20;;
53533;SDS011;39421;53.204;6.568;2022-07-23T11:38:06;2.30;;;1.30;;
53533;SDS011;39421;53.204;6.568;2022-07-23T11:40:37;2.10;;;1.35;;
53533;SDS011;39421;53.204;6.568;2022-07-23T11:43:10;2.17;;;1.30;;
53533;SDS011;39421;53.204;6.568;2022-07-23T11:50:57;2.10;;;1.30;;
53533;SDS011;39421;53.204;6.568;2022-07-23T11:53:27;2.72;;;1.48;;
53533;SDS011;39421;53.204;6.568;2022-07-23T11:56:03;2.90;;;1.40;;
53533;SDS011;39421;53.204;6.568;2022-07-23T11:58:35;2.00;;;1.50;;
53533;SDS011;39421;53.204;6.568;2022-07-23T12:01:01;2.15;;;1.40;;
53533;SDS011;39421;53.204;6.568;2022-07-23T12:03:27;2.50;;;1.50;;
53533;SDS011;39421;53.204;6.568;2022-07-23T12:05:58;1.98;;;1.33;;
53533;SDS011;39421;53.204;6.568;2022-07-23T12:08:25;3.22;;;1.65;;
53533;SDS011;39421;53.204;6.568;2022-07-23T12:10:53;2.72;;;1.42;;
53533;SDS011;39421;53.204;6.568;2022-07-23T12:13:20;3.80;;;1.60;;
53533;SDS011;39421;53.204;6.568;2022-07-23T12:15:49;2.65;;;1.70;;
53533;SDS011;39421;53.204;6.568;2022-07-23T12:18:19;2.47;;;1.60;;
53533;SDS011;39421;53.204;6.568;2022-07-23T12:20:57;2.08;;;1.48;;
53533;SDS011;39421;53.204;6.568;2022-07-23T12:23:30;2.60;;;1.60;;
53533;SDS011;39421;53.204;6.568;2022-07-23T12:25:59;5.80;;;1.70;;
53533;SDS011;39421;53.204;6.568;2022-07-23T12:28:28;3.33;;;1.33;;
53533;SDS011;39421;53.204;6.568;2022-07-23T12:30:56;2.33;;;1.33;;
53533;SDS011;39421;53.204;6.568;2022-07-23T12:33:25;3.30;;;1.40;;
53533;SDS011;39421;53.204;6.568;2022-07-23T12:35:57;3.15;;;1.38;;
53533;SDS011;39421;53.204;6.568;2022-07-23T12:38:25;2.90;;;1.30;;
53533;SDS011;39421;53.204;6.568;2022-07-23T12:41:00;1.95;;;1.27;;
53533;SDS011;39421;53.204;6.568;2022-07-23T12:43:27;1.70;;;1.30;;
53533;SDS011;39421;53.204;6.568;2022-07-23T12:45:55;2.08;;;1.20;;
53533;SDS011;39421;53.204;6.568;2022-07-23T12:48:37;2.60;;;1.25;;
53533;SDS011;39421;53.204;6.568;2022-07-23T12:51:18;1.33;;;1.10;;
53533;SDS011;39421;53.204;6.568;2022-07-23T12:54:04;2.13;;;1.33;;
53533;SDS011;39421;53.204;6.568;2022-07-23T12:56:35;2.20;;;1.40;;
53533;SDS011;39421;53.204;6.568;2022-07-23T13:01:57;1.80;;;1.30;;
53533;SDS011;39421;53.204;6.568;2022-07-23T13:04:24;1.38;;;1.10;;
53533;SDS011;39421;53.204;6.568;2022-07-23T13:06:58;1.80;;;1.30;;
53533;SDS011;39421;53.204;6.568;2022-07-23T13:09:28;2.55;;;1.20;;
53533;SDS011;39421;53.204;6.568;2022-07-23T13:11:55;2.80;;;1.50;;
53533;SDS011;39421;53.204;6.568;2022-07-23T13:14:23;2.47;;;1.20;;
53533;SDS011;39421;53.204;6.568;2022-07-23T13:16:51;1.60;;;1.00;;
53533;SDS011;39421;53.204;6.568;2022-07-23T13:19:18;1.73;;;1.20;;
53533;SDS011;39421;53.204;6.568;2022-07-23T13:21:47;1.95;;;1.20;;
53533;SDS011;39421;53.204;6.568;2022-07-23T13:24:14;2.03;;;1.30;;
53533;SDS011;39421;53.204;6.568;2022-07-23T13:26:40;2.55;;;1.17;;
53533;SDS011;39421;53.204;6.568;2022-07-23T13:29:06;3.70;;;1.23;;
53533;SDS011;39421;53.204;6.568;2022-07-23T13:31:33;2.28;;;1.17;;
53533;SDS011;39421;53.204;6.568;2022-07-23T13:34:00;2.50;;;1.20;;
53533;SDS011;39421;53.204;6.568;2022-07-23T13:36:25;2.03;;;1.00;;
53533;SDS011;39421;53.204;6.568;2022-07-23T13:38:52;2.70;;;1.20;;
53533;SDS011;39421;53.204;6.568;2022-07-23T13:41:19;2.97;;;1.30;;
53533;SDS011;39421;53.204;6.568;2022-07-23T13:43:48;2.10;;;1.17;;
53533;SDS011;39421;53.204;6.568;2022-07-23T13:46:15;2.30;;;1.50;;
53533;SDS011;39421;53.204;6.568;2022-07-23T13:48:41;2.73;;;1.53;;
53533;SDS011;39421;53.204;6.568;2022-07-23T13:51:19;1.95;;;1.45;;
53533;SDS011;39421;53.204;6.568;2022-07-23T13:53:49;5.53;;;1.40;;
53533;SDS011;39421;53.204;6.568;2022-07-23T13:56:23;1.45;;;1.20;;
53533;SDS011;39421;53.204;6.568;2022-07-23T13:58:49;3.33;;;1.30;;
53533;SDS011;39421;53.204;6.568;2022-07-23T14:01:15;2.53;;;1.40;;
53533;SDS011;39421;53.204;6.568;2022-07-23T14:03:41;1.90;;;1.20;;
53533;SDS011;39421;53.204;6.568;2022-07-23T14:06:06;2.43;;;1.30;;
53533;SDS011;39421;53.204;6.568;2022-07-23T14:08:32;2.55;;;1.20;;
53533;SDS011;39421;53.204;6.568;2022-07-23T14:10:58;2.93;;;1.47;;
53533;SDS011;39421;53.204;6.568;2022-07-23T14:13:23;1.90;;;1.20;;
53533;SDS011;39421;53.204;6.568;2022-07-23T14:15:55;2.50;;;1.40;;
53533;SDS011;39421;53.204;6.568;2022-07-23T14:18:22;2.00;;;1.30;;
53533;SDS011;39421;53.204;6.568;2022-07-23T14:20:49;2.45;;;1.20;;
53533;SDS011;39421;53.204;6.568;2022-07-23T14:23:14;1.67;;;1.33;;
53533;SDS011;39421;53.204;6.568;2022-07-23T14:25:40;2.50;;;1.40;;
53533;SDS011;39421;53.204;6.568;2022-07-23T14:28:10;2.50;;;1.30;;
53533;SDS011;39421;53.204;6.568;2022-07-23T14:30:37;2.00;;;1.30;;
53533;SDS011;39421;53.204;6.568;2022-07-23T14:33:04;3.25;;;1.40;;
53533;SDS011;39421;53.204;6.568;2022-07-23T14:35:29;2.93;;;1.30;;
53533;SDS011;39421;53.204;6.568;2022-07-23T14:37:55;2.33;;;1.30;;
53533;SDS011;39421;53.204;6.568;2022-07-23T14:40:22;2.50;;;1.40;;
53533;SDS011;39421;53.204;6.568;2022-07-23T14:42:49;2.05;;;1.40;;
53533;SDS011;39421;53.204;6.568;2022-07-23T14:45:15;2.10;;;1.43;;
53533;SDS011;39421;53.204;6.568;2022-07-23T14:47:41;3.70;;;1.53;;
53533;SDS011;39421;53.204;6.568;2022-07-23T14:50:06;2.67;;;1.43;;
53533;SDS011;39421;53.204;6.568;2022-07-23T14:52:34;3.22;;;1.50;;
53533;SDS011;39421;53.204;6.568;2022-07-23T14:54:59;1.93;;;1.50;;
53533;SDS011;39421;53.204;6.568;2022-07-23T14:57:25;4.25;;;1.58;;
53533;SDS011;39421;53.204;6.568;2022-07-23T14:59:51;2.58;;;1.40;;
53533;SDS011;39421;53.204;6.568;2022-07-23T15:02:19;2.75;;;1.35;;
53533;SDS011;39421;53.204;6.568;2022-07-23T15:04:45;1.27;;;1.17;;
53533;SDS011;39421;53.204;6.568;2022-07-23T15:07:11;1.98;;;1.30;;
53533;SDS011;39421;53.204;6.568;2022-07-23T15:09:37;1.73;;;1.27;;
53533;SDS011;39421;53.204;6.568;2022-07-23T15:12:03;2.70;;;1.27;;
53533;SDS011;39421;53.204;6.568;2022-07-23T15:14:29;2.33;;;1.27;;
53533;SDS011;39421;53.204;6.568;2022-07-23T15:16:55;2.30;;;1.60;;
53533;SDS011;39421;53.204;6.568;2022-07-23T15:19:28;2.60;;;1.42;;
53533;SDS011;39421;53.204;6.568;2022-07-23T15:21:54;2.53;;;2.10;;
53533;SDS011;39421;53.204;6.568;2022-07-23T15:24:19;2.40;;;1.60;;
53533;SDS011;39421;53.204;6.568;2022-07-23T15:26:45;3.33;;;1.70;;
53533;SDS011;39421;53.204;6.568;2022-07-23T15:29:11;6.68;;;2.25;;
53533;SDS011;39421;53.204;6.568;2022-07-23T15:31:36;2.27;;;1.53;;
53533;SDS011;39421;53.204;6.568;2022-07-23T15:34:02;2.72;;;1.63;;
53533;SDS011;39421;53.204;6.568;2022-07-23T15:36:28;2.47;;;1.70;;
53533;SDS011;39421;53.204;6.568;2022-07-23T15:38:54;1.95;;;1.48;;
53533;SDS011;39421;53.204;6.568;2022-07-23T15:41:19;1.90;;;1.37;;